Reno, Pennsylvania
Current Conditions -  °F | °C
As of 9:55 PM on Saturday 25 Oct 2014 (Local Time) from KFKL Reporting Station
Clear Clear  
Wind Chill: 57°   Ceiling: Unl
Heat Index: 57°   Visibility: 10mi
Dew Point: 39°   Wind: 13mph
Humidity: 51%   Direction: 270°W
Pressure: 29.73"   Gusts: 21mph
Location:  41.41°N, 79.75°W
Report Text: KFKL 260155Z 27011G18KT 250V310 10SM CLR 14/04 A2973 RMK AO1
Loading
Personal Weather Stations






























Interactive Weather Map New forecast layout! Learn more

10-Day Weather Forecast

Advertisements
Track Severe Weather on mobile